sensor_id;sensor_type;location;lat;lon;timestamp;P1;durP1;ratioP1;P2;durP2;ratioP2
33952;SDS011;20231;42.710;23.280;2023-03-03T00:01:21;4.22;;;3.45;;
33952;SDS011;20231;42.710;23.280;2023-03-03T00:03:49;5.10;;;3.50;;
33952;SDS011;20231;42.710;23.280;2023-03-03T00:06:16;5.68;;;3.30;;
33952;SDS011;20231;42.710;23.280;2023-03-03T00:42:51;8.23;;;4.10;;
33952;SDS011;20231;42.710;23.280;2023-03-03T00:48:51;5.13;;;4.18;;
33952;SDS011;20231;42.710;23.280;2023-03-03T00:55:10;5.75;;;4.38;;
33952;SDS011;20231;42.710;23.280;2023-03-03T00:58:38;6.95;;;4.10;;
33952;SDS011;20231;42.710;23.280;2023-03-03T01:02:16;6.47;;;4.28;;
33952;SDS011;20231;42.710;23.280;2023-03-03T01:13:12;6.70;;;4.93;;
33952;SDS011;20231;42.710;23.280;2023-03-03T01:23:47;8.50;;;4.47;;
33952;SDS011;20231;42.710;23.280;2023-03-03T01:30:11;7.00;;;4.88;;
33952;SDS011;20231;42.710;23.280;2023-03-03T01:33:19;7.57;;;4.85;;
33952;SDS011;20231;42.710;23.280;2023-03-03T01:38:34;8.73;;;4.90;;
33952;SDS011;20231;42.710;23.280;2023-03-03T01:41:36;8.95;;;5.18;;
33952;SDS011;20231;42.710;23.280;2023-03-03T01:45:06;7.88;;;4.97;;
33952;SDS011;20231;42.710;23.280;2023-03-03T01:51:03;7.65;;;4.45;;
33952;SDS011;20231;42.710;23.280;2023-03-03T01:54:30;6.35;;;4.70;;
33952;SDS011;20231;42.710;23.280;2023-03-03T02:00:52;6.47;;;4.53;;
33952;SDS011;20231;42.710;23.280;2023-03-03T02:03:24;7.93;;;5.15;;
33952;SDS011;20231;42.710;23.280;2023-03-03T02:05:52;7.53;;;4.60;;
33952;SDS011;20231;42.710;23.280;2023-03-03T02:08:22;6.60;;;4.90;;
33952;SDS011;20231;42.710;23.280;2023-03-03T02:10:53;7.38;;;4.45;;
33952;SDS011;20231;42.710;23.280;2023-03-03T02:13:21;7.30;;;5.10;;
33952;SDS011;20231;42.710;23.280;2023-03-03T02:15:52;6.80;;;4.85;;
33952;SDS011;20231;42.710;23.280;2023-03-03T02:18:21;5.80;;;4.25;;
33952;SDS011;20231;42.710;23.280;2023-03-03T02:26:35;6.50;;;4.50;;
33952;SDS011;20231;42.710;23.280;2023-03-03T02:29:05;6.35;;;4.28;;
33952;SDS011;20231;42.710;23.280;2023-03-03T02:31:31;6.15;;;4.38;;
33952;SDS011;20231;42.710;23.280;2023-03-03T02:34:01;9.07;;;4.28;;
33952;SDS011;20231;42.710;23.280;2023-03-03T02:36:28;5.97;;;3.95;;
33952;SDS011;20231;42.710;23.280;2023-03-03T02:41:41;4.60;;;3.13;;
33952;SDS011;20231;42.710;23.280;2023-03-03T02:44:12;4.18;;;3.47;;
33952;SDS011;20231;42.710;23.280;2023-03-03T02:46:44;6.10;;;3.97;;
33952;SDS011;20231;42.710;23.280;2023-03-03T02:49:12;6.05;;;3.75;;
33952;SDS011;20231;42.710;23.280;2023-03-03T03:09:03;6.50;;;4.70;;
33952;SDS011;20231;42.710;23.280;2023-03-03T03:30:35;8.07;;;5.68;;
33952;SDS011;20231;42.710;23.280;2023-03-03T03:33:00;6.93;;;5.03;;
33952;SDS011;20231;42.710;23.280;2023-03-03T03:35:27;7.80;;;5.40;;
33952;SDS011;20231;42.710;23.280;2023-03-03T03:37:52;7.65;;;5.47;;
33952;SDS011;20231;42.710;23.280;2023-03-03T03:40:39;8.13;;;5.95;;
33952;SDS011;20231;42.710;23.280;2023-03-03T03:43:07;7.65;;;5.40;;
33952;SDS011;20231;42.710;23.280;2023-03-03T03:45:36;7.47;;;5.38;;
33952;SDS011;20231;42.710;23.280;2023-03-03T03:48:05;9.10;;;6.18;;
33952;SDS011;20231;42.710;23.280;2023-03-03T03:50:46;9.25;;;5.68;;
33952;SDS011;20231;42.710;23.280;2023-03-03T03:53:21;9.43;;;6.60;;
33952;SDS011;20231;42.710;23.280;2023-03-03T03:55:47;8.13;;;5.68;;
33952;SDS011;20231;42.710;23.280;2023-03-03T03:58:40;9.82;;;6.00;;
33952;SDS011;20231;42.710;23.280;2023-03-03T04:01:21;7.90;;;5.95;;
33952;SDS011;20231;42.710;23.280;2023-03-03T04:04:12;9.23;;;5.83;;
33952;SDS011;20231;42.710;23.280;2023-03-03T04:06:41;8.88;;;6.00;;
33952;SDS011;20231;42.710;23.280;2023-03-03T04:09:07;8.68;;;6.38;;
33952;SDS011;20231;42.710;23.280;2023-03-03T04:11:33;10.30;;;6.32;;
33952;SDS011;20231;42.710;23.280;2023-03-03T04:13:58;9.65;;;6.18;;
33952;SDS011;20231;42.710;23.280;2023-03-03T04:16:24;11.07;;;6.70;;
33952;SDS011;20231;42.710;23.280;2023-03-03T04:19:03;9.77;;;6.45;;
33952;SDS011;20231;42.710;23.280;2023-03-03T04:25:04;8.43;;;6.03;;
33952;SDS011;20231;42.710;23.280;2023-03-03T04:28:17;9.98;;;6.05;;
33952;SDS011;20231;42.710;23.280;2023-03-03T04:30:46;12.02;;;6.78;;
33952;SDS011;20231;42.710;23.280;2023-03-03T04:33:36;9.85;;;6.60;;
33952;SDS011;20231;42.710;23.280;2023-03-03T04:36:04;11.70;;;7.30;;
33952;SDS011;20231;42.710;23.280;2023-03-03T04:42:33;12.68;;;7.03;;
33952;SDS011;20231;42.710;23.280;2023-03-03T04:48:43;10.73;;;8.13;;
33952;SDS011;20231;42.710;23.280;2023-03-03T04:51:38;10.35;;;7.07;;
33952;SDS011;20231;42.710;23.280;2023-03-03T04:58:03;13.43;;;7.05;;
33952;SDS011;20231;42.710;23.280;2023-03-03T05:01:26;15.70;;;7.78;;
33952;SDS011;20231;42.710;23.280;2023-03-03T05:03:51;10.65;;;7.72;;
33952;SDS011;20231;42.710;23.280;2023-03-03T05:06:21;11.55;;;7.40;;
33952;SDS011;20231;42.710;23.280;2023-03-03T05:08:48;13.80;;;8.15;;
33952;SDS011;20231;42.710;23.280;2023-03-03T05:11:19;11.10;;;7.20;;
33952;SDS011;20231;42.710;23.280;2023-03-03T05:17:50;12.30;;;7.97;;
33952;SDS011;20231;42.710;23.280;2023-03-03T05:20:42;16.63;;;9.00;;
33952;SDS011;20231;42.710;23.280;2023-03-03T05:23:52;13.32;;;8.10;;
33952;SDS011;20231;42.710;23.280;2023-03-03T05:26:43;16.33;;;8.90;;
33952;SDS011;20231;42.710;23.280;2023-03-03T05:29:25;15.00;;;9.32;;
33952;SDS011;20231;42.710;23.280;2023-03-03T05:31:54;17.73;;;8.73;;
33952;SDS011;20231;42.710;23.280;2023-03-03T05:34:29;15.50;;;9.13;;
33952;SDS011;20231;42.710;23.280;2023-03-03T05:36:54;14.38;;;9.80;;
33952;SDS011;20231;42.710;23.280;2023-03-03T05:44:58;19.45;;;9.93;;
33952;SDS011;20231;42.710;23.280;2023-03-03T05:54:08;17.08;;;10.40;;
33952;SDS011;20231;42.710;23.280;2023-03-03T05:59:40;16.20;;;9.77;;
33952;SDS011;20231;42.710;23.280;2023-03-03T06:02:05;16.13;;;10.27;;
33952;SDS011;20231;42.710;23.280;2023-03-03T06:04:31;17.23;;;10.27;;
33952;SDS011;20231;42.710;23.280;2023-03-03T06:06:57;17.45;;;10.27;;
33952;SDS011;20231;42.710;23.280;2023-03-03T06:09:28;17.00;;;10.05;;
33952;SDS011;20231;42.710;23.280;2023-03-03T06:12:01;14.77;;;10.30;;
33952;SDS011;20231;42.710;23.280;2023-03-03T06:14:52;21.65;;;10.05;;
33952;SDS011;20231;42.710;23.280;2023-03-03T06:18:08;15.27;;;9.68;;
33952;SDS011;20231;42.710;23.280;2023-03-03T06:20:35;17.30;;;9.07;;
33952;SDS011;20231;42.710;23.280;2023-03-03T06:23:02;14.23;;;9.10;;
33952;SDS011;20231;42.710;23.280;2023-03-03T06:25:35;16.40;;;10.35;;
33952;SDS011;20231;42.710;23.280;2023-03-03T06:28:02;15.57;;;10.35;;
33952;SDS011;20231;42.710;23.280;2023-03-03T06:30:38;17.23;;;10.20;;
33952;SDS011;20231;42.710;23.280;2023-03-03T06:33:36;15.63;;;9.50;;
33952;SDS011;20231;42.710;23.280;2023-03-03T06:36:32;20.25;;;10.85;;
33952;SDS011;20231;42.710;23.280;2023-03-03T06:38:59;14.50;;;7.97;;
33952;SDS011;20231;42.710;23.280;2023-03-03T06:41:26;14.85;;;9.45;;
33952;SDS011;20231;42.710;23.280;2023-03-03T06:44:12;14.98;;;8.55;;
33952;SDS011;20231;42.710;23.280;2023-03-03T06:46:37;14.88;;;8.70;;
33952;SDS011;20231;42.710;23.280;2023-03-03T06:49:03;13.88;;;9.32;;
33952;SDS011;20231;42.710;23.280;2023-03-03T06:51:36;13.52;;;8.27;;
33952;SDS011;20231;42.710;23.280;2023-03-03T06:54:11;12.65;;;8.35;;
33952;SDS011;20231;42.710;23.280;2023-03-03T06:56:39;18.30;;;9.43;;
33952;SDS011;20231;42.710;23.280;2023-03-03T06:59:14;13.07;;;8.27;;
33952;SDS011;20231;42.710;23.280;2023-03-03T07:01:44;13.02;;;8.88;;
33952;SDS011;20231;42.710;23.280;2023-03-03T07:04:32;13.25;;;8.95;;
33952;SDS011;20231;42.710;23.280;2023-03-03T07:06:59;13.95;;;8.55;;
33952;SDS011;20231;42.710;23.280;2023-03-03T07:09:32;14.95;;;10.98;;
33952;SDS011;20231;42.710;23.280;2023-03-03T07:12:01;18.10;;;12.52;;
33952;SDS011;20231;42.710;23.280;2023-03-03T07:14:34;20.95;;;13.75;;
33952;SDS011;20231;42.710;23.280;2023-03-03T07:17:08;20.42;;;10.68;;
33952;SDS011;20231;42.710;23.280;2023-03-03T07:19:41;17.55;;;10.80;;
33952;SDS011;20231;42.710;23.280;2023-03-03T07:22:21;14.25;;;9.80;;
33952;SDS011;20231;42.710;23.280;2023-03-03T07:24:50;16.75;;;9.45;;
33952;SDS011;20231;42.710;23.280;2023-03-03T07:29:44;12.95;;;8.25;;
33952;SDS011;20231;42.710;23.280;2023-03-03T07:34:46;13.18;;;8.85;;
33952;SDS011;20231;42.710;23.280;2023-03-03T07:37:19;14.07;;;8.40;;
33952;SDS011;20231;42.710;23.280;2023-03-03T07:39:52;13.07;;;8.93;;
33952;SDS011;20231;42.710;23.280;2023-03-03T07:42:51;14.18;;;9.02;;
33952;SDS011;20231;42.710;23.280;2023-03-03T07:45:29;14.70;;;9.98;;
33952;SDS011;20231;42.710;23.280;2023-03-03T07:48:06;14.32;;;7.88;;
33952;SDS011;20231;42.710;23.280;2023-03-03T07:50:41;16.27;;;10.50;;
33952;SDS011;20231;42.710;23.280;2023-03-03T07:55:53;12.05;;;8.35;;
33952;SDS011;20231;42.710;23.280;2023-03-03T07:58:22;15.90;;;10.13;;
33952;SDS011;20231;42.710;23.280;2023-03-03T08:03:59;14.32;;;9.18;;
33952;SDS011;20231;42.710;23.280;2023-03-03T08:06:36;13.45;;;9.27;;
33952;SDS011;20231;42.710;23.280;2023-03-03T08:11:50;16.20;;;9.93;;
33952;SDS011;20231;42.710;23.280;2023-03-03T08:14:20;17.15;;;9.82;;
33952;SDS011;20231;42.710;23.280;2023-03-03T08:16:51;16.33;;;10.95;;
33952;SDS011;20231;42.710;23.280;2023-03-03T08:19:16;17.05;;;11.77;;
33952;SDS011;20231;42.710;23.280;2023-03-03T08:21:42;14.90;;;10.10;;
33952;SDS011;20231;42.710;23.280;2023-03-03T08:24:08;17.63;;;10.98;;
33952;SDS011;20231;42.710;23.280;2023-03-03T08:26:33;15.90;;;10.10;;
33952;SDS011;20231;42.710;23.280;2023-03-03T08:28:59;16.35;;;10.05;;
33952;SDS011;20231;42.710;23.280;2023-03-03T08:31:25;14.43;;;10.35;;
33952;SDS011;20231;42.710;23.280;2023-03-03T08:33:51;16.52;;;10.77;;
33952;SDS011;20231;42.710;23.280;2023-03-03T08:36:16;15.43;;;10.45;;
33952;SDS011;20231;42.710;23.280;2023-03-03T08:38:42;21.35;;;11.63;;
33952;SDS011;20231;42.710;23.280;2023-03-03T08:41:07;16.00;;;10.05;;
33952;SDS011;20231;42.710;23.280;2023-03-03T08:43:33;14.95;;;10.02;;
33952;SDS011;20231;42.710;23.280;2023-03-03T08:46:00;19.35;;;11.07;;
33952;SDS011;20231;42.710;23.280;2023-03-03T08:48:26;16.58;;;10.13;;
33952;SDS011;20231;42.710;23.280;2023-03-03T08:50:53;18.23;;;11.00;;
33952;SDS011;20231;42.710;23.280;2023-03-03T08:53:18;19.88;;;12.38;;
33952;SDS011;20231;42.710;23.280;2023-03-03T08:55:44;17.70;;;10.75;;
33952;SDS011;20231;42.710;23.280;2023-03-03T08:58:10;16.05;;;10.48;;
33952;SDS011;20231;42.710;23.280;2023-03-03T09:00:36;18.50;;;11.90;;
33952;SDS011;20231;42.710;23.280;2023-03-03T09:03:02;18.63;;;11.40;;
33952;SDS011;20231;42.710;23.280;2023-03-03T09:05:29;17.70;;;11.48;;
33952;SDS011;20231;42.710;23.280;2023-03-03T09:07:55;14.80;;;10.32;;
33952;SDS011;20231;42.710;23.280;2023-03-03T09:10:23;15.57;;;10.25;;
33952;SDS011;20231;42.710;23.280;2023-03-03T09:12:55;24.27;;;14.23;;
33952;SDS011;20231;42.710;23.280;2023-03-03T09:15:29;19.92;;;12.13;;
33952;SDS011;20231;42.710;23.280;2023-03-03T09:17:57;18.85;;;11.25;;
33952;SDS011;20231;42.710;23.280;2023-03-03T09:20:59;18.98;;;11.25;;
33952;SDS011;20231;42.710;23.280;2023-03-03T09:25:52;17.17;;;11.20;;
33952;SDS011;20231;42.710;23.280;2023-03-03T09:28:22;18.45;;;11.88;;
33952;SDS011;20231;42.710;23.280;2023-03-03T09:30:50;20.00;;;11.82;;
33952;SDS011;20231;42.710;23.280;2023-03-03T09:36:29;16.65;;;10.88;;
33952;SDS011;20231;42.710;23.280;2023-03-03T09:39:00;19.23;;;12.25;;
33952;SDS011;20231;42.710;23.280;2023-03-03T09:49:35;16.65;;;10.38;;
33952;SDS011;20231;42.710;23.280;2023-03-03T10:13:54;17.65;;;11.15;;
33952;SDS011;20231;42.710;23.280;2023-03-03T10:24:50;17.25;;;10.85;;
33952;SDS011;20231;42.710;23.280;2023-03-03T10:36:05;16.38;;;10.63;;
33952;SDS011;20231;42.710;23.280;2023-03-03T10:53:33;16.60;;;11.18;;
33952;SDS011;20231;42.710;23.280;2023-03-03T10:56:21;16.38;;;11.05;;
33952;SDS011;20231;42.710;23.280;2023-03-03T11:01:28;17.08;;;11.38;;
33952;SDS011;20231;42.710;23.280;2023-03-03T11:04:09;18.45;;;11.80;;
33952;SDS011;20231;42.710;23.280;2023-03-03T11:07:39;19.83;;;11.90;;
33952;SDS011;20231;42.710;23.280;2023-03-03T11:20:34;24.30;;;15.73;;
33952;SDS011;20231;42.710;23.280;2023-03-03T11:26:09;23.00;;;14.48;;
33952;SDS011;20231;42.710;23.280;2023-03-03T11:32:15;20.55;;;14.05;;
33952;SDS011;20231;42.710;23.280;2023-03-03T11:34:32;23.77;;;15.65;;
33952;SDS011;20231;42.710;23.280;2023-03-03T11:40:04;21.95;;;14.45;;
33952;SDS011;20231;42.710;23.280;2023-03-03T11:42:55;24.95;;;14.82;;
33952;SDS011;20231;42.710;23.280;2023-03-03T11:45:46;26.33;;;16.90;;
33952;SDS011;20231;42.710;23.280;2023-03-03T11:51:16;24.20;;;14.73;;
33952;SDS011;20231;42.710;23.280;2023-03-03T11:56:24;25.73;;;15.60;;
33952;SDS011;20231;42.710;23.280;2023-03-03T12:04:48;25.13;;;15.30;;
33952;SDS011;20231;42.710;23.280;2023-03-03T12:12:17;20.65;;;13.07;;
33952;SDS011;20231;42.710;23.280;2023-03-03T12:26:05;34.17;;;16.98;;
33952;SDS011;20231;42.710;23.280;2023-03-03T12:28:45;17.73;;;11.32;;
33952;SDS011;20231;42.710;23.280;2023-03-03T12:47:44;12.48;;;8.60;;
33952;SDS011;20231;42.710;23.280;2023-03-03T12:52:49;8.55;;;6.47;;
33952;SDS011;20231;42.710;23.280;2023-03-03T13:04:04;10.32;;;7.95;;
33952;SDS011;20231;42.710;23.280;2023-03-03T13:06:44;13.23;;;7.80;;
33952;SDS011;20231;42.710;23.280;2023-03-03T13:17:33;10.65;;;7.22;;
33952;SDS011;20231;42.710;23.280;2023-03-03T13:24:28;22.02;;;11.13;;
33952;SDS011;20231;42.710;23.280;2023-03-03T13:26:47;7.93;;;6.13;;
33952;SDS011;20231;42.710;23.280;2023-03-03T13:29:19;9.73;;;7.28;;
33952;SDS011;20231;42.710;23.280;2023-03-03T13:31:54;12.35;;;8.68;;
33952;SDS011;20231;42.710;23.280;2023-03-03T13:40:00;12.93;;;8.18;;
33952;SDS011;20231;42.710;23.280;2023-03-03T13:47:47;10.13;;;5.60;;
33952;SDS011;20231;42.710;23.280;2023-03-03T13:50:30;8.63;;;5.95;;
33952;SDS011;20231;42.710;23.280;2023-03-03T13:58:41;9.13;;;5.90;;
33952;SDS011;20231;42.710;23.280;2023-03-03T14:01:30;7.72;;;5.55;;
33952;SDS011;20231;42.710;23.280;2023-03-03T14:03:59;8.02;;;5.80;;
33952;SDS011;20231;42.710;23.280;2023-03-03T14:06:26;6.40;;;5.15;;
33952;SDS011;20231;42.710;23.280;2023-03-03T14:19:36;6.07;;;4.90;;
33952;SDS011;20231;42.710;23.280;2023-03-03T14:24:54;6.32;;;4.90;;
33952;SDS011;20231;42.710;23.280;2023-03-03T14:27:25;5.78;;;4.40;;
33952;SDS011;20231;42.710;23.280;2023-03-03T14:29:51;10.02;;;6.75;;
33952;SDS011;20231;42.710;23.280;2023-03-03T14:32:24;7.38;;;5.60;;
33952;SDS011;20231;42.710;23.280;2023-03-03T14:34:58;6.85;;;5.32;;
33952;SDS011;20231;42.710;23.280;2023-03-03T14:37:41;8.05;;;5.95;;
33952;SDS011;20231;42.710;23.280;2023-03-03T14:47:52;7.80;;;5.75;;
33952;SDS011;20231;42.710;23.280;2023-03-03T14:50:32;7.53;;;5.55;;
33952;SDS011;20231;42.710;23.280;2023-03-03T14:53:19;9.23;;;6.00;;
33952;SDS011;20231;42.710;23.280;2023-03-03T14:55:51;7.25;;;5.38;;
33952;SDS011;20231;42.710;23.280;2023-03-03T14:58:27;10.35;;;6.85;;
33952;SDS011;20231;42.710;23.280;2023-03-03T15:01:15;9.68;;;5.70;;
33952;SDS011;20231;42.710;23.280;2023-03-03T15:03:59;11.93;;;6.88;;
33952;SDS011;20231;42.710;23.280;2023-03-03T15:06:32;9.43;;;6.18;;
33952;SDS011;20231;42.710;23.280;2023-03-03T15:09:18;11.07;;;5.90;;
33952;SDS011;20231;42.710;23.280;2023-03-03T15:11:50;8.77;;;5.38;;
33952;SDS011;20231;42.710;23.280;2023-03-03T15:14:16;8.38;;;5.93;;
33952;SDS011;20231;42.710;23.280;2023-03-03T15:16:45;7.72;;;5.65;;
33952;SDS011;20231;42.710;23.280;2023-03-03T15:19:31;7.20;;;5.47;;
33952;SDS011;20231;42.710;23.280;2023-03-03T15:25:27;9.18;;;5.75;;
33952;SDS011;20231;42.710;23.280;2023-03-03T15:42:06;11.60;;;7.57;;
33952;SDS011;20231;42.710;23.280;2023-03-03T15:44:43;11.07;;;7.30;;
33952;SDS011;20231;42.710;23.280;2023-03-03T15:47:23;10.52;;;6.45;;
33952;SDS011;20231;42.710;23.280;2023-03-03T15:55:17;8.55;;;5.85;;
33952;SDS011;20231;42.710;23.280;2023-03-03T16:00:22;7.40;;;5.60;;
33952;SDS011;20231;42.710;23.280;2023-03-03T16:08:13;7.45;;;5.28;;
33952;SDS011;20231;42.710;23.280;2023-03-03T16:19:25;8.43;;;4.32;;
33952;SDS011;20231;42.710;23.280;2023-03-03T16:22:09;8.10;;;5.20;;
33952;SDS011;20231;42.710;23.280;2023-03-03T16:27:45;7.13;;;4.93;;
33952;SDS011;20231;42.710;23.280;2023-03-03T16:30:44;8.00;;;5.73;;
33952;SDS011;20231;42.710;23.280;2023-03-03T16:36:07;7.70;;;5.82;;
33952;SDS011;20231;42.710;23.280;2023-03-03T16:50:12;22.02;;;12.30;;
33952;SDS011;20231;42.710;23.280;2023-03-03T16:52:48;18.67;;;11.00;;
33952;SDS011;20231;42.710;23.280;2023-03-03T16:55:27;18.70;;;12.95;;
33952;SDS011;20231;42.710;23.280;2023-03-03T16:58:18;27.73;;;20.10;;
33952;SDS011;20231;42.710;23.280;2023-03-03T17:09:21;19.77;;;11.68;;
33952;SDS011;20231;42.710;23.280;2023-03-03T17:14:33;9.05;;;6.05;;
33952;SDS011;20231;42.710;23.280;2023-03-03T17:17:09;12.70;;;7.15;;
33952;SDS011;20231;42.710;23.280;2023-03-03T17:19:54;12.98;;;7.78;;
33952;SDS011;20231;42.710;23.280;2023-03-03T17:28:18;15.40;;;8.77;;
33952;SDS011;20231;42.710;23.280;2023-03-03T17:31:02;18.67;;;9.07;;
33952;SDS011;20231;42.710;23.280;2023-03-03T17:33:44;13.63;;;7.47;;
33952;SDS011;20231;42.710;23.280;2023-03-03T17:36:52;11.45;;;6.60;;
33952;SDS011;20231;42.710;23.280;2023-03-03T17:42:06;9.63;;;6.53;;
33952;SDS011;20231;42.710;23.280;2023-03-03T17:44:47;12.57;;;7.30;;
33952;SDS011;20231;42.710;23.280;2023-03-03T17:55:38;15.68;;;7.78;;
33952;SDS011;20231;42.710;23.280;2023-03-03T18:12:37;8.15;;;4.95;;
33952;SDS011;20231;42.710;23.280;2023-03-03T18:18:02;12.70;;;6.93;;
33952;SDS011;20231;42.710;23.280;2023-03-03T18:23:33;15.55;;;7.90;;
33952;SDS011;20231;42.710;23.280;2023-03-03T18:26:50;15.65;;;7.20;;
33952;SDS011;20231;42.710;23.280;2023-03-03T18:31:37;12.20;;;6.57;;
33952;SDS011;20231;42.710;23.280;2023-03-03T18:36:57;11.45;;;6.85;;
33952;SDS011;20231;42.710;23.280;2023-03-03T18:40:27;16.92;;;8.73;;
33952;SDS011;20231;42.710;23.280;2023-03-03T18:55:47;12.15;;;7.32;;
33952;SDS011;20231;42.710;23.280;2023-03-03T19:06:28;15.88;;;6.38;;
33952;SDS011;20231;42.710;23.280;2023-03-03T19:08:54;8.00;;;5.13;;
33952;SDS011;20231;42.710;23.280;2023-03-03T19:11:30;7.15;;;4.47;;
33952;SDS011;20231;42.710;23.280;2023-03-03T19:14:13;8.02;;;4.15;;
33952;SDS011;20231;42.710;23.280;2023-03-03T19:17:40;5.07;;;3.70;;
33952;SDS011;20231;42.710;23.280;2023-03-03T19:22:42;9.85;;;4.00;;
33952;SDS011;20231;42.710;23.280;2023-03-03T19:25:12;9.65;;;4.95;;
33952;SDS011;20231;42.710;23.280;2023-03-03T19:44:39;8.27;;;5.00;;
33952;SDS011;20231;42.710;23.280;2023-03-03T19:52:48;10.23;;;5.30;;
33952;SDS011;20231;42.710;23.280;2023-03-03T20:05:55;10.18;;;6.95;;
33952;SDS011;20231;42.710;23.280;2023-03-03T20:08:30;10.50;;;6.53;;
33952;SDS011;20231;42.710;23.280;2023-03-03T20:11:29;11.00;;;6.65;;
33952;SDS011;20231;42.710;23.280;2023-03-03T20:14:35;9.00;;;6.47;;
33952;SDS011;20231;42.710;23.280;2023-03-03T20:30:55;7.07;;;5.28;;
33952;SDS011;20231;42.710;23.280;2023-03-03T20:38:51;8.57;;;6.10;;
33952;SDS011;20231;42.710;23.280;2023-03-03T20:49:39;10.25;;;6.13;;
33952;SDS011;20231;42.710;23.280;2023-03-03T20:52:25;10.52;;;6.28;;
33952;SDS011;20231;42.710;23.280;2023-03-03T20:57:44;11.57;;;7.22;;
33952;SDS011;20231;42.710;23.280;2023-03-03T21:03:21;9.77;;;6.97;;
33952;SDS011;20231;42.710;23.280;2023-03-03T21:06:02;9.40;;;6.22;;
33952;SDS011;20231;42.710;23.280;2023-03-03T21:11:22;9.47;;;7.07;;
33952;SDS011;20231;42.710;23.280;2023-03-03T21:13:53;11.77;;;8.70;;
33952;SDS011;20231;42.710;23.280;2023-03-03T21:30:13;13.00;;;8.25;;
33952;SDS011;20231;42.710;23.280;2023-03-03T21:32:44;10.43;;;7.97;;
33952;SDS011;20231;42.710;23.280;2023-03-03T21:35:12;10.23;;;7.88;;
33952;SDS011;20231;42.710;23.280;2023-03-03T21:37:46;11.95;;;7.18;;
33952;SDS011;20231;42.710;23.280;2023-03-03T21:42:49;13.77;;;8.52;;
33952;SDS011;20231;42.710;23.280;2023-03-03T21:45:16;11.35;;;8.23;;
33952;SDS011;20231;42.710;23.280;2023-03-03T21:47:44;11.65;;;8.20;;
33952;SDS011;20231;42.710;23.280;2023-03-03T21:50:10;13.07;;;9.90;;
33952;SDS011;20231;42.710;23.280;2023-03-03T21:52:36;13.95;;;8.95;;
33952;SDS011;20231;42.710;23.280;2023-03-03T21:55:02;15.27;;;9.07;;
33952;SDS011;20231;42.710;23.280;2023-03-03T21:57:30;16.30;;;8.55;;
33952;SDS011;20231;42.710;23.280;2023-03-03T21:59:56;14.80;;;9.25;;
33952;SDS011;20231;42.710;23.280;2023-03-03T22:02:21;13.20;;;8.27;;
33952;SDS011;20231;42.710;23.280;2023-03-03T22:04:47;14.18;;;8.40;;
33952;SDS011;20231;42.710;23.280;2023-03-03T22:07:12;14.68;;;10.20;;
33952;SDS011;20231;42.710;23.280;2023-03-03T22:09:38;14.73;;;9.73;;
33952;SDS011;20231;42.710;23.280;2023-03-03T22:12:04;19.63;;;10.48;;
33952;SDS011;20231;42.710;23.280;2023-03-03T22:14:30;14.38;;;10.48;;
33952;SDS011;20231;42.710;23.280;2023-03-03T22:16:56;16.83;;;11.05;;
33952;SDS011;20231;42.710;23.280;2023-03-03T22:19:21;21.70;;;12.80;;
33952;SDS011;20231;42.710;23.280;2023-03-03T22:21:47;17.33;;;11.20;;
33952;SDS011;20231;42.710;23.280;2023-03-03T22:24:13;18.75;;;12.50;;
33952;SDS011;20231;42.710;23.280;2023-03-03T22:26:41;17.02;;;10.43;;
33952;SDS011;20231;42.710;23.280;2023-03-03T22:29:07;17.58;;;11.57;;
33952;SDS011;20231;42.710;23.280;2023-03-03T22:31:32;22.00;;;13.68;;
33952;SDS011;20231;42.710;23.280;2023-03-03T22:33:58;20.35;;;12.68;;
33952;SDS011;20231;42.710;23.280;2023-03-03T22:36:24;23.27;;;13.40;;
33952;SDS011;20231;42.710;23.280;2023-03-03T22:38:49;22.05;;;13.05;;
33952;SDS011;20231;42.710;23.280;2023-03-03T22:41:15;19.98;;;12.90;;
33952;SDS011;20231;42.710;23.280;2023-03-03T22:43:41;26.35;;;13.48;;
33952;SDS011;20231;42.710;23.280;2023-03-03T22:46:09;20.88;;;12.95;;
33952;SDS011;20231;42.710;23.280;2023-03-03T22:48:35;20.58;;;13.82;;
33952;SDS011;20231;42.710;23.280;2023-03-03T22:51:01;22.05;;;14.10;;
33952;SDS011;20231;42.710;23.280;2023-03-03T22:53:27;22.27;;;12.90;;
33952;SDS011;20231;42.710;23.280;2023-03-03T22:55:52;23.35;;;13.85;;
33952;SDS011;20231;42.710;23.280;2023-03-03T22:58:18;22.42;;;13.65;;
33952;SDS011;20231;42.710;23.280;2023-03-03T23:00:45;23.23;;;13.25;;
33952;SDS011;20231;42.710;23.280;2023-03-03T23:03:12;20.30;;;12.98;;
33952;SDS011;20231;42.710;23.280;2023-03-03T23:05:38;21.83;;;12.60;;
33952;SDS011;20231;42.710;23.280;2023-03-03T23:08:04;18.63;;;12.57;;
33952;SDS011;20231;42.710;23.280;2023-03-03T23:10:31;19.10;;;11.80;;
33952;SDS011;20231;42.710;23.280;2023-03-03T23:16:19;20.05;;;12.23;;
33952;SDS011;20231;42.710;23.280;2023-03-03T23:18:44;21.90;;;12.60;;
33952;SDS011;20231;42.710;23.280;2023-03-03T23:21:10;21.40;;;12.57;;
33952;SDS011;20231;42.710;23.280;2023-03-03T23:23:35;19.83;;;12.07;;
33952;SDS011;20231;42.710;23.280;2023-03-03T23:26:06;18.92;;;11.52;;
33952;SDS011;20231;42.710;23.280;2023-03-03T23:28:31;18.38;;;11.95;;
33952;SDS011;20231;42.710;23.280;2023-03-03T23:30:57;20.13;;;12.05;;
33952;SDS011;20231;42.710;23.280;2023-03-03T23:33:22;19.65;;;12.68;;
33952;SDS011;20231;42.710;23.280;2023-03-03T23:35:47;19.08;;;11.35;;
33952;SDS011;20231;42.710;23.280;2023-03-03T23:38:19;17.65;;;11.10;;
33952;SDS011;20231;42.710;23.280;2023-03-03T23:40:44;16.40;;;10.98;;
33952;SDS011;20231;42.710;23.280;2023-03-03T23:43:16;18.02;;;11.73;;
33952;SDS011;20231;42.710;23.280;2023-03-03T23:45:41;18.77;;;11.27;;
33952;SDS011;20231;42.710;23.280;2023-03-03T23:51:31;18.65;;;11.30;;
33952;SDS011;20231;42.710;23.280;2023-03-03T23:53:57;16.60;;;10.57;;
33952;SDS011;20231;42.710;23.280;2023-03-03T23:56:23;17.95;;;11.68;;
33952;SDS011;20231;42.710;23.280;2023-03-03T23:58:48;18.45;;;11.38;;
